Time;durP1;ratioP1;P1;durP2;ratioP2;P2;SDS_P1;SDS_P2;PMS_P1;PMS_P2;Temp;Humidity;BMP_temperature;BMP_pressure;BME280_temperature;BME280_humidity;BME280_pressure;Samples;Min_cycle;Max_cycle;Signal;HPM_P1;HPM_P2
2022/08/31 00:04:47;;;;;;;3.20;0.70;;;;;;;15.56;71.02;99943.91;430762;1271;198664;-59
2022/08/31 00:14:53;;;;;;;2.10;0.90;;;;;;;15.46;71.40;99937.52;432009;1271;146512;-59
2022/08/31 00:24:58;;;;;;;2.50;1.10;;;;;;;15.39;71.86;99943.64;431101;1271;142073;-59
2022/08/31 00:35:06;;;;;;;2.30;1.20;;;;;;;15.35;72.17;99946.65;430641;1271;142507;-59
2022/08/31 00:45:12;;;;;;;3.10;1.30;;;;;;;15.31;72.56;99954.75;431205;1271;142986;-60
2022/08/31 00:55:22;;;;;;;2.50;1.10;;;;;;;15.31;72.85;99961.44;431636;1271;146679;-59
2022/08/31 01:05:30;;;;;;;3.00;1.70;;;;;;;15.26;73.08;99960.73;430610;1271;145468;-57
2022/08/31 01:15:39;;;;;;;1.80;1.40;;;;;;;15.20;73.49;99953.79;431655;1271;142936;-58
2022/08/31 01:25:48;;;;;;;3.80;1.70;;;;;;;15.14;73.97;99944.86;431347;1271;148624;-60
2022/08/31 01:35:55;;;;;;;5.50;2.00;;;;;;;15.08;74.16;99941.27;430742;1271;197999;-58
2022/08/31 01:46:01;;;;;;;5.00;1.70;;;;;;;14.96;74.55;99941.34;431235;1271;142519;-59
2022/08/31 01:56:13;;;;;;;4.20;1.50;;;;;;;14.77;74.87;99946.13;430503;1271;163727;-59
2022/08/31 02:06:19;;;;;;;4.10;1.90;;;;;;;14.47;75.40;99946.23;431117;1272;199968;-59
2022/08/31 02:16:25;;;;;;;4.90;1.90;;;;;;;14.18;76.08;99940.58;431313;1271;148074;-58
2022/08/31 02:26:31;;;;;;;3.80;2.00;;;;;;;13.90;76.75;99941.71;429935;1271;147663;-59
2022/08/31 02:36:37;;;;;;;3.90;2.50;;;;;;;13.68;77.62;99937.85;431485;1271;147487;-58
2022/08/31 02:46:44;;;;;;;4.40;1.90;;;;;;;13.52;78.38;99938.58;430989;1271;143994;-58
2022/08/31 02:56:51;;;;;;;4.80;2.50;;;;;;;13.38;79.02;99937.59;430998;1271;142183;-59
2022/08/31 03:06:57;;;;;;;4.70;2.70;;;;;;;13.20;79.54;99937.81;431041;1271;142831;-59
2022/08/31 03:17:02;;;;;;;5.80;2.80;;;;;;;13.01;80.07;99941.36;430449;1271;147456;-59
2022/08/31 03:27:08;;;;;;;2.20;2.00;;;;;;;12.85;80.75;99947.52;431570;1271;141643;-58
2022/08/31 03:37:14;;;;;;;4.40;2.80;;;;;;;12.72;81.13;99946.13;430944;1271;143435;-60
2022/08/31 03:47:20;;;;;;;5.40;2.60;;;;;;;12.63;81.51;99951.27;430744;1270;142316;-58
2022/08/31 03:57:28;;;;;;;7.00;3.30;;;;;;;12.66;82.10;99957.66;430929;1271;141627;-61
2022/08/31 04:07:35;;;;;;;3.30;2.30;;;;;;;12.69;82.26;99953.52;430938;1271;142731;-58
2022/08/31 04:17:48;;;;;;;6.10;2.30;;;;;;;12.72;82.60;99955.13;430788;1271;141995;-58
2022/08/31 04:28:01;;;;;;;4.00;3.00;;;;;;;12.88;82.64;99961.60;430840;1271;143800;-60
2022/08/31 04:38:09;;;;;;;7.90;2.90;;;;;;;13.13;82.54;99970.31;430242;1271;142321;-60
2022/08/31 04:48:15;;;;;;;;;;;;;;;13.45;82.28;99980.41;431165;1271;142797;-58
2022/08/31 04:58:22;;;;;;;4.90;1.90;;;;;;;13.68;81.56;99983.40;430836;1271;128306;-62
2022/08/31 05:08:29;;;;;;;4.90;2.30;;;;;;;13.91;81.24;99981.94;430825;1271;145078;-58
2022/08/31 05:18:35;;;;;;;4.40;2.10;;;;;;;14.35;80.66;99985.98;432961;1271;146136;-57
2022/08/31 05:28:40;;;;;;;3.90;2.00;;;;;;;20.94;77.23;99983.09;431036;1271;141895;-60
2022/08/31 05:38:46;;;;;;;8.70;1.70;;;;;;;28.78;63.41;99975.92;442443;1271;143129;-58
2022/08/31 05:48:52;;;;;;;6.40;2.30;;;;;;;34.67;51.41;99981.15;441316;1271;143652;-59
2022/08/31 05:58:58;;;;;;;2.50;1.20;;;;;;;37.45;42.62;99987.13;430624;1271;147224;-58
2022/08/31 06:09:05;;;;;;;1.40;1.10;;;;;;;38.76;37.76;99999.70;431620;1271;141990;-59
2022/08/31 06:19:11;;;;;;;2.70;1.20;;;;;;;40.18;33.32;100002.42;431340;1271;142364;-59
2022/08/31 06:29:20;;;;;;;1.80;1.50;;;;;;;40.66;31.04;100004.18;430232;1271;146707;-59
2022/08/31 06:39:26;;;;;;;3.00;0.80;;;;;;;42.28;28.54;100006.31;429619;1271;1636726;-56
2022/08/31 06:49:31;;;;;;;2.00;1.00;;;;;;;42.02;26.76;100013.02;430998;1271;141870;-57
2022/08/31 06:59:37;;;;;;;1.20;0.90;;;;;;;42.52;25.13;100019.89;430963;1271;142092;-56
2022/08/31 07:09:43;;;;;;;1.40;0.50;;;;;;;41.29;24.10;100022.14;431624;1271;142819;-62
2022/08/31 07:19:50;;;;;;;1.80;0.80;;;;;;;40.85;24.74;100026.15;430541;1271;151913;-59
2022/08/31 07:29:58;;;;;;;1.10;0.70;;;;;;;42.37;23.39;100026.77;431584;1271;142969;-59
2022/08/31 07:50:30;;;;;;;2.70;1.50;;;;;;;43.59;21.90;100039.83;431028;1271;142147;-59
2022/08/31 08:00:41;;;;;;;1.60;1.00;;;;;;;44.07;20.57;100037.20;431621;1271;145097;-59
2022/08/31 08:10:47;;;;;;;0.80;0.80;;;;;;;44.25;19.69;100035.77;430762;1271;145414;-60
2022/08/31 08:20:57;;;;;;;0.90;0.90;;;;;;;43.82;19.51;100039.66;431492;1271;142588;-60
2022/08/31 08:31:03;;;;;;;0.50;0.50;;;;;;;44.74;19.08;100045.32;431053;1271;142774;-59
2022/08/31 08:41:17;;;;;;;0.70;0.60;;;;;;;39.75;20.11;100050.76;430664;1271;143611;-58
2022/08/31 08:51:31;;;;;;;2.00;0.60;;;;;;;31.76;24.98;100055.02;431124;1271;142543;-61
2022/08/31 09:01:37;;;;;;;1.40;0.80;;;;;;;28.06;29.21;100061.05;430928;1271;146294;-61
2022/08/31 09:11:54;;;;;;;4.20;1.20;;;;;;;27.05;31.23;100050.70;430480;1271;142064;-60
2022/08/31 09:22:01;;;;;;;1.10;0.40;;;;;;;25.73;32.98;100050.83;431422;1271;140915;-60
2022/08/31 09:32:09;;;;;;;0.70;0.30;;;;;;;25.01;34.06;100050.23;430737;1272;142432;-60
2022/08/31 09:42:27;;;;;;;1.20;0.50;;;;;;;24.68;33.31;100048.38;431209;1271;142723;-59
2022/08/31 10:03:07;;;;;;;0.90;0.50;;;;;;;23.08;34.14;100051.16;431172;1271;142974;-59
2022/08/31 10:13:20;;;;;;;1.60;0.70;;;;;;;22.32;36.96;100047.71;430974;1271;201145;-59
2022/08/31 10:23:34;;;;;;;4.40;0.70;;;;;;;22.14;38.15;100052.79;430699;1271;142083;-60
2022/08/31 10:44:16;;;;;;;1.30;0.60;;;;;;;21.99;38.48;100047.47;429868;1271;142250;-59
2022/08/31 10:54:33;;;;;;;1.80;0.80;;;;;;;22.22;39.05;100039.67;430989;1271;148004;-61
2022/08/31 11:04:57;;;;;;;3.50;0.80;;;;;;;22.11;39.71;100037.98;431290;1271;141761;-59
2022/08/31 11:15:27;;;;;;;2.60;0.50;;;;;;;22.20;38.42;100030.61;431042;1271;141147;-59
2022/08/31 11:25:57;;;;;;;3.00;0.60;;;;;;;22.35;38.07;100011.68;432878;1271;140892;-58
2022/08/31 11:36:08;;;;;;;1.70;0.60;;;;;;;21.47;39.24;100012.35;432583;1271;141958;-59
2022/08/31 11:46:46;;;;;;;0.60;0.50;;;;;;;20.98;40.34;100002.81;432186;1271;142100;-57
2022/08/31 11:56:55;;;;;;;2.80;0.80;;;;;;;21.18;40.09;99987.71;431626;1271;140826;-58
2022/08/31 12:07:03;;;;;;;2.80;1.40;;;;;;;21.71;39.74;99981.36;432011;1271;142663;-59
2022/08/31 12:17:20;;;;;;;1.80;0.70;;;;;;;21.62;39.71;99978.20;430609;1271;141955;-59
2022/08/31 12:27:39;;;;;;;2.00;0.90;;;;;;;20.99;41.02;99983.21;432111;1271;143443;-59
2022/08/31 12:37:45;;;;;;;7.80;0.60;;;;;;;20.94;40.99;99971.41;431321;1271;143188;-62
2022/08/31 12:48:06;;;;;;;2.20;0.50;;;;;;;21.51;39.79;99963.64;431422;1271;144020;-60
2022/08/31 12:58:31;;;;;;;0.70;0.50;;;;;;;21.49;38.79;99954.59;431161;1271;141586;-58
2022/08/31 13:08:40;;;;;;;2.00;0.60;;;;;;;21.33;38.90;99964.61;430442;1271;142606;-59
2022/08/31 13:18:46;;;;;;;2.00;1.40;;;;;;;20.97;40.29;99963.86;431122;1271;143000;-60
2022/08/31 13:28:55;;;;;;;1.10;0.70;;;;;;;20.70;41.78;99964.70;430355;1271;141517;-58
2022/08/31 13:39:05;;;;;;;2.70;1.60;;;;;;;20.54;42.49;99969.20;431234;1271;141103;-59
2022/08/31 13:49:31;;;;;;;2.30;0.60;;;;;;;20.37;42.69;99969.96;431766;1271;142571;-59
2022/08/31 13:59:39;;;;;;;4.70;1.00;;;;;;;20.41;42.96;99963.16;430640;1271;143049;-60
2022/08/31 14:09:47;;;;;;;10.20;1.20;;;;;;;20.46;42.69;99956.84;431089;1271;140667;-61
2022/08/31 14:19:53;;;;;;;0.80;0.70;;;;;;;20.61;42.28;99950.71;429644;1271;146579;-60
2022/08/31 14:29:59;;;;;;;1.50;0.50;;;;;;;20.60;41.47;99949.35;433808;1271;143594;-59
2022/08/31 14:40:07;;;;;;;6.10;0.90;;;;;;;20.59;42.06;99955.90;431332;1271;141171;-59
2022/08/31 14:50:16;;;;;;;2.00;0.80;;;;;;;20.38;42.58;99952.96;430583;1271;142141;-57
2022/08/31 15:00:23;;;;;;;1.00;0.40;;;;;;;20.18;43.05;99949.97;438327;1271;141933;-58
2022/08/31 15:10:29;;;;;;;3.30;0.70;;;;;;;20.21;43.09;99945.00;438857;1271;141656;-59
2022/08/31 15:20:40;;;;;;;4.50;0.60;;;;;;;20.26;42.88;99934.27;430608;1271;146396;-60
2022/08/31 15:30:46;;;;;;;1.50;0.30;;;;;;;20.11;42.55;99933.23;431466;1271;142588;-57
2022/08/31 15:40:52;;;;;;;1.30;0.40;;;;;;;19.93;42.12;99933.55;430967;1271;144435;-60
2022/08/31 15:50:58;;;;;;;1.20;0.60;;;;;;;19.71;42.36;99923.59;431163;1271;142565;-58
2022/08/31 16:01:08;;;;;;;1.50;0.70;;;;;;;19.50;42.13;99928.74;430803;1271;145137;-61
2022/08/31 16:11:14;;;;;;;1.70;0.60;;;;;;;19.27;42.36;99926.35;430338;1271;143684;-60
2022/08/31 16:21:20;;;;;;;1.90;0.90;;;;;;;18.99;43.23;99925.02;430654;1271;146838;-57
2022/08/31 16:31:28;;;;;;;5.40;1.10;;;;;;;18.70;44.06;99924.91;430537;1272;141689;-59
2022/08/31 16:41:34;;;;;;;4.70;1.30;;;;;;;18.42;45.18;99918.02;430152;1272;147166;-61
2022/08/31 16:51:41;;;;;;;1.20;0.90;;;;;;;18.19;46.67;99919.25;430709;1272;142308;-58
2022/08/31 17:01:53;;;;;;;1.60;1.00;;;;;;;17.87;48.98;99928.62;429916;1272;146831;-58
2022/08/31 17:12:06;;;;;;;2.00;1.00;;;;;;;17.54;50.67;99925.28;430628;1271;146647;-58
2022/08/31 17:22:16;;;;;;;4.00;1.00;;;;;;;17.33;51.59;99929.84;430794;1272;141924;-59
2022/08/31 17:32:29;;;;;;;5.10;1.10;;;;;;;17.10;52.22;99933.91;430063;1271;142461;-59
2022/08/31 17:42:35;;;;;;;1.90;0.70;;;;;;;16.80;52.89;99944.67;434479;1271;148857;-60
2022/08/31 17:52:41;;;;;;;2.40;0.70;;;;;;;16.53;53.24;99955.63;431008;1270;146929;-58
2022/08/31 18:02:49;;;;;;;0.70;0.70;;;;;;;16.28;53.34;99961.54;437492;1271;186563;-59
2022/08/31 18:12:55;;;;;;;1.20;0.80;;;;;;;16.04;53.15;99971.73;430896;1271;142356;-58
2022/08/31 18:23:03;;;;;;;0.80;0.50;;;;;;;15.84;52.61;99975.77;430137;1271;146062;-59
2022/08/31 18:33:09;;;;;;;0.80;0.50;;;;;;;15.61;52.93;99982.86;429602;1271;1379734;-59
2022/08/31 18:53:46;;;;;;;0.90;0.60;;;;;;;15.33;53.48;99985.97;430447;1271;141656;-59
2022/08/31 19:03:52;;;;;;;2.50;0.80;;;;;;;15.22;53.83;99990.63;431222;1271;141644;-61
2022/08/31 19:14:00;;;;;;;2.30;0.90;;;;;;;15.19;54.25;99992.30;431454;1270;142376;-59
2022/08/31 19:24:11;;;;;;;2.10;1.30;;;;;;;15.13;54.69;99987.51;431006;1271;143660;-62
2022/08/31 19:34:20;;;;;;;2.70;0.70;;;;;;;15.05;55.10;99979.09;431175;1271;147242;-60
2022/08/31 19:44:26;;;;;;;;;;;;;;;15.04;55.37;99972.67;430120;1271;141669;-59
2022/08/31 19:54:37;;;;;;;3.40;1.20;;;;;;;15.07;55.80;99972.94;431059;1271;128621;-55
2022/08/31 20:04:44;;;;;;;3.90;1.00;;;;;;;15.10;55.99;99976.79;431315;1271;142963;-58
2022/08/31 20:14:50;;;;;;;0.70;0.70;;;;;;;15.11;56.20;99975.27;430824;1271;147122;-60
2022/08/31 20:24:57;;;;;;;4.20;1.30;;;;;;;15.09;56.80;99973.16;430819;1271;144979;-60
2022/08/31 20:35:05;;;;;;;2.70;0.50;;;;;;;15.01;57.37;99982.56;429901;1271;146820;-60
2022/08/31 20:45:12;;;;;;;3.40;1.00;;;;;;;14.98;57.92;99985.04;430706;1271;146765;-58
2022/08/31 20:55:18;;;;;;;2.10;1.20;;;;;;;14.92;58.10;99992.38;431138;1271;147635;-60
2022/08/31 21:05:24;;;;;;;1.90;1.20;;;;;;;14.85;58.54;99989.25;430074;1271;143780;-60
2022/08/31 21:15:49;;;;;;;5.40;1.70;;;;;;;14.82;58.97;99991.90;431168;1271;142570;-59
2022/08/31 21:25:56;;;;;;;1.40;1.00;;;;;;;14.86;59.52;100000.97;430011;1271;143700;-58
2022/08/31 21:36:08;;;;;;;1.70;0.90;;;;;;;14.87;59.98;100005.48;430481;1271;143212;-58
2022/08/31 21:46:20;;;;;;;1.10;0.60;;;;;;;14.88;60.30;100010.34;431189;1271;143219;-60
2022/08/31 21:56:29;;;;;;;1.30;0.90;;;;;;;14.88;60.48;100008.95;430568;1271;143138;-61
2022/08/31 22:06:36;;;;;;;3.90;1.20;;;;;;;14.83;60.72;100003.83;430446;1271;143340;-61
2022/08/31 22:16:45;;;;;;;3.30;1.10;;;;;;;14.78;60.99;99998.73;430710;1270;142136;-58
2022/08/31 22:26:51;;;;;;;4.00;0.80;;;;;;;14.76;61.23;99995.23;430981;1271;142821;-59
2022/08/31 22:36:58;;;;;;;1.20;0.80;;;;;;;14.72;61.36;99994.58;430989;1271;147363;-58
2022/08/31 22:47:05;;;;;;;1.30;0.80;;;;;;;14.69;61.56;99995.52;429975;1271;145539;-61
2022/08/31 22:57:11;;;;;;;1.20;1.00;;;;;;;14.61;61.83;99995.23;431080;1271;142193;-61
2022/08/31 23:07:16;;;;;;;2.40;0.90;;;;;;;14.52;62.23;99991.96;431535;1271;143041;-59
2022/08/31 23:17:22;;;;;;;2.80;1.10;;;;;;;14.41;62.60;99988.21;430524;1271;144090;-59
2022/08/31 23:27:29;;;;;;;2.30;1.30;;;;;;;14.31;63.19;99980.00;432006;1271;145985;-60
2022/08/31 23:37:36;;;;;;;2.70;1.00;;;;;;;14.23;63.60;99980.33;430982;1271;147934;-59
2022/08/31 23:47:42;;;;;;;1.70;1.00;;;;;;;14.14;63.67;99979.93;430573;1271;142788;-58
